Time;durP1;ratioP1;P1;durP2;ratioP2;P2;SDS_P1;SDS_P2;PMS_P1;PMS_P2;Temp;Humidity;BMP_temperature;BMP_pressure;BME280_temperature;BME280_humidity;BME280_pressure;Samples;Min_cycle;Max_cycle;Signal;HPM_P1;HPM_P2
2023/06/19 00:02:09;;;;;;;0.68;0.52;;;19.90;99.90;;;;;;5052928;28;20096;-75
2023/06/19 00:04:35;;;;;;;0.73;0.60;;;20.10;99.90;;;;;;5052396;28;20056;-75
2023/06/19 00:07:01;;;;;;;0.20;0.20;;;20.10;99.90;;;;;;5051554;28;20036;-75
2023/06/19 00:09:27;;;;;;;9.88;2.85;;;20.10;99.90;;;;;;5052705;28;20458;-74
2023/06/19 00:11:52;;;;;;;0.80;0.55;;;20.10;99.90;;;;;;5052464;28;20216;-74
2023/06/19 00:14:18;;;;;;;0.43;0.43;;;19.90;99.90;;;;;;5051590;28;20028;-74
2023/06/19 00:16:44;;;;;;;0.52;0.40;;;20.00;99.90;;;;;;5052473;28;20497;-74
2023/06/19 00:19:11;;;;;;;0.65;0.65;;;20.00;99.90;;;;;;5051233;28;20116;-74
2023/06/19 00:21:38;;;;;;;3.40;1.63;;;19.90;99.90;;;;;;5052505;28;20108;-74
2023/06/19 00:24:04;;;;;;;2.85;1.58;;;19.90;99.90;;;;;;5051319;28;20028;-74
2023/06/19 00:26:30;;;;;;;0.73;0.57;;;19.80;99.90;;;;;;5052250;28;20040;-74
2023/06/19 00:28:56;;;;;;;2.78;1.05;;;19.80;99.90;;;;;;5052663;28;20029;-74
2023/06/19 00:31:22;;;;;;;2.55;1.67;;;19.90;99.90;;;;;;5051242;28;20406;-74
2023/06/19 00:33:49;;;;;;;1.38;0.90;;;20.00;99.90;;;;;;5050834;28;20385;-74
2023/06/19 00:36:19;;;;;;;2.97;1.20;;;20.00;99.90;;;;;;5052472;28;20037;-74
2023/06/19 00:38:46;;;;;;;0.60;0.60;;;20.00;99.90;;;;;;5052564;28;20033;-74
2023/06/19 00:41:12;;;;;;;1.27;1.10;;;20.00;99.90;;;;;;5051235;28;20044;-74
2023/06/19 00:43:38;;;;;;;2.38;0.98;;;19.90;99.90;;;;;;5051262;28;20099;-74
2023/06/19 00:46:04;;;;;;;4.00;1.60;;;19.70;99.90;;;;;;5052350;28;20021;-74
2023/06/19 00:48:31;;;;;;;4.10;1.92;;;19.80;99.90;;;;;;5050791;28;20025;-74
2023/06/19 00:50:57;;;;;;;0.80;0.50;;;19.90;99.90;;;;;;5050839;28;20065;-74
2023/06/19 00:53:24;;;;;;;2.63;0.85;;;19.80;99.90;;;;;;5052255;28;20029;-74
2023/06/19 00:55:56;;;;;;;0.38;0.30;;;19.80;99.90;;;;;;5050943;28;20492;-74
2023/06/19 00:58:23;;;;;;;0.80;0.70;;;19.80;99.90;;;;;;5052538;28;20095;-74
2023/06/19 01:00:49;;;;;;;2.63;1.27;;;19.80;99.90;;;;;;5054843;28;20104;-74
2023/06/19 01:03:17;;;;;;;1.30;0.75;;;19.90;99.90;;;;;;5054451;28;20017;-74
2023/06/19 01:05:46;;;;;;;1.50;1.15;;;20.00;99.90;;;;;;5056331;28;20029;-74
2023/06/19 01:08:49;;;;;;;2.40;1.35;;;20.00;99.90;;;;;;5055853;28;20079;-74
2023/06/19 01:11:19;;;;;;;2.30;1.35;;;19.90;99.90;;;;;;5055828;28;20025;-74
2023/06/19 01:13:49;;;;;;;4.22;0.93;;;19.90;99.90;;;;;;5054538;28;20033;-74
2023/06/19 01:16:16;;;;;;;0.95;0.75;;;19.90;99.90;;;;;;5056131;28;20025;-74
2023/06/19 01:18:42;;;;;;;2.30;1.10;;;19.80;99.90;;;;;;5055536;28;20037;-74
2023/06/19 01:21:13;;;;;;;2.25;1.40;;;19.90;99.90;;;;;;5055837;28;20070;-74
2023/06/19 01:23:40;;;;;;;0.22;0.22;;;20.00;99.90;;;;;;5054270;28;20036;-74
2023/06/19 01:26:07;;;;;;;0.70;0.50;;;19.90;99.90;;;;;;5054502;28;20025;-74
2023/06/19 01:28:36;;;;;;;2.15;0.88;;;20.00;99.90;;;;;;5054411;28;20017;-74
2023/06/19 01:31:05;;;;;;;3.60;2.25;;;20.10;99.90;;;;;;5053861;28;20047;-74
2023/06/19 01:33:32;;;;;;;2.60;1.35;;;20.00;99.90;;;;;;5054044;28;20036;-74
2023/06/19 01:35:58;;;;;;;2.85;1.08;;;19.90;99.90;;;;;;5055415;28;20033;-74
2023/06/19 01:38:28;;;;;;;0.00;0.00;;;19.90;99.90;;;;;;5055607;28;20025;-74
2023/06/19 01:40:56;;;;;;;2.90;1.48;;;19.90;99.90;;;;;;5054106;28;20040;-74
2023/06/19 01:43:24;;;;;;;0.57;0.20;;;19.90;99.90;;;;;;5055270;28;20037;-74
2023/06/19 01:45:52;;;;;;;1.10;0.80;;;19.80;99.90;;;;;;5053458;28;20028;-74
2023/06/19 01:48:18;;;;;;;0.60;0.60;;;19.90;99.90;;;;;;5054057;28;20056;-74
2023/06/19 01:50:48;;;;;;;0.40;0.40;;;19.80;99.90;;;;;;5054160;28;20024;-74
2023/06/19 01:53:14;;;;;;;1.70;1.08;;;19.90;99.90;;;;;;5053416;28;20029;-74
2023/06/19 01:55:40;;;;;;;3.47;2.17;;;19.90;99.90;;;;;;5026596;28;20417;-74
2023/06/19 01:58:06;;;;;;;0.35;0.35;;;19.80;99.90;;;;;;5052015;28;20067;-74
2023/06/19 02:00:35;;;;;;;1.25;0.85;;;19.80;99.90;;;;;;5053577;28;20021;-74
2023/06/19 02:03:01;;;;;;;1.83;1.27;;;19.80;99.90;;;;;;5054795;28;20053;-74
2023/06/19 02:05:27;;;;;;;3.08;1.48;;;19.90;99.90;;;;;;5053658;28;20112;-74
2023/06/19 02:07:53;;;;;;;2.47;1.02;;;19.80;99.90;;;;;;5054861;28;20055;-74
2023/06/19 02:10:19;;;;;;;10.00;1.90;;;19.80;99.90;;;;;;5053816;28;20470;-74
2023/06/19 02:12:45;;;;;;;0.93;0.70;;;19.70;99.90;;;;;;5053312;28;20039;-74
2023/06/19 02:15:11;;;;;;;2.67;2.22;;;19.70;99.90;;;;;;5054316;28;20112;-74
2023/06/19 02:17:37;;;;;;;7.70;1.83;;;19.80;99.90;;;;;;5053834;28;20059;-74
2023/06/19 02:20:07;;;;;;;0.35;0.35;;;19.80;99.90;;;;;;5036724;28;20053;-74
2023/06/19 02:22:33;;;;;;;0.90;0.80;;;19.70;99.90;;;;;;5053605;28;20063;-74
2023/06/19 02:24:59;;;;;;;2.40;2.03;;;19.80;99.90;;;;;;5063304;28;20033;-74
2023/06/19 02:27:24;;;;;;;0.57;0.35;;;19.70;99.90;;;;;;5073125;28;20119;-74
2023/06/19 02:29:50;;;;;;;2.35;0.85;;;19.90;99.90;;;;;;5072834;28;20052;-74
2023/06/19 02:32:17;;;;;;;1.65;1.08;;;19.90;99.90;;;;;;5073124;28;20051;-74
2023/06/19 02:34:44;;;;;;;2.50;1.73;;;19.80;99.90;;;;;;5073266;28;20016;-74
2023/06/19 02:37:10;;;;;;;1.33;0.98;;;19.90;99.90;;;;;;5072953;28;20123;-74
2023/06/19 02:39:36;;;;;;;0.10;0.10;;;19.80;99.90;;;;;;5073191;28;20012;-74
2023/06/19 02:42:02;;;;;;;0.40;0.40;;;19.80;99.90;;;;;;5072818;28;20078;-74
2023/06/19 02:44:28;;;;;;;1.25;1.05;;;19.80;99.90;;;;;;5072579;28;20098;-74
2023/06/19 02:46:54;;;;;;;1.35;0.65;;;19.80;99.90;;;;;;5073262;28;20125;-74
2023/06/19 02:49:19;;;;;;;0.70;0.65;;;19.70;99.90;;;;;;5072635;28;20017;-74
2023/06/19 02:51:46;;;;;;;2.55;1.25;;;19.80;99.90;;;;;;5073919;28;20035;-74
2023/06/19 02:54:12;;;;;;;1.58;1.23;;;19.90;99.90;;;;;;5056144;28;20031;-74
2023/06/19 02:56:38;;;;;;;6.03;2.97;;;20.00;99.90;;;;;;5074238;28;20016;-74
2023/06/19 02:59:04;;;;;;;0.70;0.68;;;19.90;99.90;;;;;;5073327;28;20028;-73
2023/06/19 03:01:30;;;;;;;4.25;2.83;;;19.90;99.90;;;;;;5073985;28;20158;-73
2023/06/19 03:03:56;;;;;;;0.93;0.85;;;19.80;99.90;;;;;;5073862;28;20063;-73
2023/06/19 03:06:22;;;;;;;2.65;2.08;;;19.90;99.90;;;;;;5073774;28;20021;-73
2023/06/19 03:08:48;;;;;;;0.38;0.38;;;19.80;99.90;;;;;;5074050;28;20090;-74
2023/06/19 03:11:13;;;;;;;2.90;1.98;;;19.80;99.90;;;;;;5073557;28;20028;-73
2023/06/19 03:13:52;;;;;;;2.40;0.73;;;19.90;99.90;;;;;;5072150;28;20086;-74
2023/06/19 03:16:19;;;;;;;4.05;1.80;;;19.70;99.90;;;;;;5072201;28;20028;-74
2023/06/19 03:18:47;;;;;;;1.15;0.68;;;19.60;99.90;;;;;;5072449;28;20016;-74
2023/06/19 03:21:15;;;;;;;1.48;0.77;;;19.50;99.90;;;;;;5055738;28;20031;-74
2023/06/19 03:23:43;;;;;;;0.80;0.55;;;19.60;99.90;;;;;;5072083;28;20021;-74
2023/06/19 03:26:10;;;;;;;8.48;1.63;;;19.70;99.90;;;;;;5073452;28;20112;-74
2023/06/19 03:28:38;;;;;;;1.00;0.32;;;19.60;99.90;;;;;;5071864;28;20028;-74
2023/06/19 03:31:07;;;;;;;2.88;1.38;;;19.60;99.90;;;;;;5072014;28;20021;-73
2023/06/19 03:33:32;;;;;;;0.80;0.35;;;19.50;99.90;;;;;;5073252;28;20062;-74
2023/06/19 03:35:58;;;;;;;2.25;1.13;;;19.40;99.90;;;;;;5071864;28;20481;-73
2023/06/19 03:38:48;;;;;;;2.47;0.85;;;19.60;99.90;;;;;;5064829;28;20025;-73
2023/06/19 03:41:15;;;;;;;1.80;1.35;;;19.70;99.90;;;;;;5071860;28;20039;-74
2023/06/19 03:43:41;;;;;;;2.72;1.48;;;19.70;99.90;;;;;;5071444;28;20089;-74
2023/06/19 03:46:08;;;;;;;1.73;1.33;;;19.50;99.90;;;;;;5074412;28;20366;-74
2023/06/19 03:48:34;;;;;;;3.28;2.28;;;19.40;99.90;;;;;;5073294;28;20025;-74
2023/06/19 03:51:00;;;;;;;1.00;0.75;;;19.40;99.90;;;;;;5071674;28;20028;-75
2023/06/19 03:53:27;;;;;;;6.00;2.03;;;19.50;99.90;;;;;;5071544;28;20077;-74
2023/06/19 03:55:54;;;;;;;0.55;0.28;;;19.40;99.90;;;;;;5071214;28;20016;-74
2023/06/19 03:58:20;;;;;;;0.73;0.30;;;19.40;99.90;;;;;;5071777;28;20114;-74
2023/06/19 04:00:46;;;;;;;0.93;0.82;;;19.40;99.90;;;;;;5072767;28;20032;-74
2023/06/19 04:03:11;;;;;;;1.92;0.65;;;19.50;99.90;;;;;;5072651;28;20020;-74
2023/06/19 04:05:38;;;;;;;1.27;0.95;;;19.50;99.90;;;;;;5071359;28;20503;-74
2023/06/19 04:08:04;;;;;;;0.00;0.00;;;19.50;99.90;;;;;;5071713;28;20035;-74
2023/06/19 04:10:30;;;;;;;14.40;1.60;;;19.50;99.90;;;;;;5071042;28;20481;-74
2023/06/19 04:12:56;;;;;;;0.30;0.30;;;19.50;99.90;;;;;;5072566;28;20036;-74
2023/06/19 04:15:22;;;;;;;0.38;0.38;;;19.50;99.90;;;;;;5071482;28;20034;-74
2023/06/19 04:17:49;;;;;;;1.08;1.05;;;19.70;99.90;;;;;;5070974;28;20388;-74
2023/06/19 04:20:14;;;;;;;0.80;0.75;;;19.40;99.90;;;;;;5071525;28;20565;-74
2023/06/19 04:22:41;;;;;;;0.30;0.13;;;19.40;99.90;;;;;;5071009;28;20123;-74
2023/06/19 04:25:08;;;;;;;0.40;0.40;;;19.30;99.90;;;;;;5060437;28;20025;-74
2023/06/19 04:27:34;;;;;;;2.03;0.80;;;19.40;99.90;;;;;;5071475;28;20028;-74
2023/06/19 04:30:02;;;;;;;1.48;1.38;;;19.50;99.90;;;;;;5072673;28;20496;-74
2023/06/19 04:32:28;;;;;;;2.35;1.15;;;19.30;99.90;;;;;;5072209;28;20551;-74
2023/06/19 04:34:53;;;;;;;0.00;0.00;;;19.40;99.90;;;;;;5076771;28;20100;-74
2023/06/19 04:37:19;;;;;;;1.10;1.00;;;19.60;99.90;;;;;;5076561;28;20078;-74
2023/06/19 04:39:46;;;;;;;1.55;0.55;;;19.60;99.90;;;;;;5076415;28;20029;-74
2023/06/19 04:42:19;;;;;;;6.20;2.63;;;19.70;99.90;;;;;;5076107;28;20028;-73
2023/06/19 04:44:46;;;;;;;4.22;2.55;;;19.70;99.90;;;;;;5055676;28;20029;-74
2023/06/19 04:47:12;;;;;;;1.13;0.93;;;19.40;99.90;;;;;;5076215;28;20426;-74
2023/06/19 04:49:37;;;;;;;4.20;1.90;;;19.30;99.90;;;;;;5076477;28;20029;-74
2023/06/19 04:52:03;;;;;;;2.67;2.00;;;19.10;99.90;;;;;;5075991;28;20047;-75
2023/06/19 04:54:32;;;;;;;1.63;1.40;;;19.10;99.90;;;;;;5074946;28;20052;-74
2023/06/19 04:56:58;;;;;;;3.30;2.58;;;18.90;99.90;;;;;;5074895;28;20114;-74
2023/06/19 04:59:24;;;;;;;5.75;1.58;;;18.90;99.90;;;;;;5076093;28;20025;-73
2023/06/19 05:01:53;;;;;;;6.82;3.38;;;18.90;99.90;;;;;;5076107;28;20025;-74
2023/06/19 05:04:20;;;;;;;5.07;3.38;;;18.80;99.90;;;;;;5074747;28;20358;-74
2023/06/19 05:06:46;;;;;;;4.10;2.83;;;18.70;99.90;;;;;;5076058;28;20074;-74
2023/06/19 05:09:11;;;;;;;4.13;2.67;;;18.80;99.90;;;;;;5075629;28;20473;-74
2023/06/19 05:11:37;;;;;;;8.15;2.75;;;19.00;99.90;;;;;;5075944;28;20020;-74
2023/06/19 05:14:03;;;;;;;8.57;4.05;;;19.00;99.90;;;;;;5075524;28;20043;-74
2023/06/19 05:16:29;;;;;;;4.13;3.13;;;18.90;99.90;;;;;;5075854;28;20078;-74
2023/06/19 05:18:54;;;;;;;9.35;5.53;;;18.70;99.90;;;;;;5075918;28;20127;-74
2023/06/19 05:21:20;;;;;;;2.58;1.88;;;18.70;99.90;;;;;;5075603;28;20021;-74
2023/06/19 05:23:50;;;;;;;4.78;3.80;;;18.80;99.90;;;;;;5075355;28;20423;-74
2023/06/19 05:26:20;;;;;;;2.15;1.98;;;18.80;99.90;;;;;;5075634;28;20086;-75
2023/06/19 05:28:47;;;;;;;3.40;2.60;;;18.90;99.90;;;;;;5075505;28;20056;-75
2023/06/19 05:31:13;;;;;;;3.72;2.38;;;18.90;99.90;;;;;;5075221;28;20127;-74
2023/06/19 05:33:39;;;;;;;6.70;3.15;;;19.10;99.90;;;;;;5075504;28;20108;-73
2023/06/19 05:36:05;;;;;;;9.80;5.57;;;18.90;99.90;;;;;;5043280;28;20033;-74
2023/06/19 05:38:31;;;;;;;1.73;1.63;;;18.80;99.90;;;;;;5053144;28;20071;-75
2023/06/19 05:40:58;;;;;;;1.02;0.47;;;18.90;99.90;;;;;;5053799;28;20470;-75
2023/06/19 05:43:25;;;;;;;1.52;1.42;;;18.90;99.90;;;;;;5040920;28;20383;-76
2023/06/19 05:45:51;;;;;;;6.40;2.20;;;19.10;99.90;;;;;;5053516;28;20028;-75
2023/06/19 05:48:16;;;;;;;3.40;2.70;;;19.20;99.90;;;;;;5054145;28;20025;-75
2023/06/19 05:50:42;;;;;;;1.35;1.20;;;19.10;99.90;;;;;;5054289;28;20530;-74
2023/06/19 05:53:08;;;;;;;8.63;5.28;;;19.20;99.90;;;;;;5052612;28;20402;-75
2023/06/19 05:55:34;;;;;;;9.85;4.80;;;19.10;99.90;;;;;;5053739;28;20466;-75
2023/06/19 05:58:00;;;;;;;7.47;5.10;;;19.20;99.90;;;;;;5054055;28;20509;-75
2023/06/19 06:00:27;;;;;;;1.08;1.05;;;19.00;99.90;;;;;;5054353;28;20489;-75
2023/06/19 06:02:53;;;;;;;0.55;0.43;;;19.10;99.90;;;;;;5054102;28;20028;-75
2023/06/19 06:05:20;;;;;;;2.22;2.10;;;18.90;99.90;;;;;;5053749;28;20044;-74
2023/06/19 06:07:46;;;;;;;2.38;1.63;;;19.10;99.90;;;;;;5053503;28;20092;-75
2023/06/19 06:10:12;;;;;;;5.15;3.88;;;19.30;99.90;;;;;;5054081;28;20120;-74
2023/06/19 06:12:38;;;;;;;10.32;5.55;;;19.30;99.90;;;;;;5053768;28;20047;-75
2023/06/19 06:15:07;;;;;;;1.85;1.75;;;19.30;99.90;;;;;;5053821;28;20029;-74
2023/06/19 06:17:33;;;;;;;1.80;1.67;;;19.40;99.90;;;;;;5052338;28;20033;-75
2023/06/19 06:19:59;;;;;;;0.60;0.60;;;19.70;99.90;;;;;;5052547;28;20036;-75
2023/06/19 06:22:25;;;;;;;6.47;3.70;;;19.60;99.90;;;;;;5052668;28;20112;-74
2023/06/19 06:24:50;;;;;;;4.20;2.38;;;19.30;99.90;;;;;;5052309;28;20119;-74
2023/06/19 06:27:16;;;;;;;2.95;2.15;;;19.20;99.90;;;;;;5053694;28;20029;-75
2023/06/19 06:29:42;;;;;;;6.63;1.20;;;18.70;99.90;;;;;;5052054;28;20086;-75
2023/06/19 06:32:09;;;;;;;3.83;2.20;;;18.80;99.90;;;;;;5057729;28;20071;-75
2023/06/19 06:34:35;;;;;;;5.57;2.40;;;19.10;99.90;;;;;;5058531;28;20017;-74
2023/06/19 06:37:01;;;;;;;5.70;3.97;;;18.90;99.90;;;;;;5053084;28;20569;-74
2023/06/19 06:39:27;;;;;;;1.42;1.33;;;18.90;99.90;;;;;;5053104;28;20025;-75
2023/06/19 06:41:53;;;;;;;0.85;0.70;;;19.30;99.90;;;;;;5051954;28;20446;-76
2023/06/19 06:44:19;;;;;;;6.63;3.92;;;19.50;99.90;;;;;;5052904;28;20067;-76
2023/06/19 06:46:44;;;;;;;27.50;9.80;;;19.30;99.90;;;;;;5053272;28;20021;-76
2023/06/19 06:49:12;;;;;;;12.55;6.57;;;19.00;99.90;;;;;;5051967;28;20037;-75
2023/06/19 06:51:37;;;;;;;9.32;5.13;;;19.10;99.90;;;;;;5052938;28;20024;-75
2023/06/19 06:54:03;;;;;;;9.60;5.38;;;19.20;99.90;;;;;;5052828;28;20029;-75
2023/06/19 06:56:29;;;;;;;4.57;3.65;;;19.40;99.90;;;;;;5052323;28;20831;-75
2023/06/19 06:58:55;;;;;;;17.63;6.55;;;19.20;99.90;;;;;;5051881;28;20021;-75
2023/06/19 07:01:21;;;;;;;7.70;4.50;;;19.10;99.90;;;;;;5053152;28;20441;-75
2023/06/19 07:03:46;;;;;;;10.30;4.63;;;19.20;99.90;;;;;;5052877;28;20025;-75
2023/06/19 07:06:12;;;;;;;4.32;3.20;;;19.30;99.90;;;;;;5051115;28;20064;-75
2023/06/19 07:08:40;;;;;;;5.32;3.88;;;19.50;99.90;;;;;;5053412;28;20033;-75
2023/06/19 07:11:07;;;;;;;0.73;0.68;;;19.40;99.90;;;;;;5052658;28;20492;-75
2023/06/19 07:13:33;;;;;;;4.07;3.13;;;19.70;99.90;;;;;;5052903;28;20077;-76
2023/06/19 07:16:01;;;;;;;13.45;4.15;;;20.10;99.90;;;;;;5052585;28;20102;-75
2023/06/19 07:18:27;;;;;;;2.78;1.65;;;20.10;99.90;;;;;;5051454;28;20028;-76
2023/06/19 07:20:53;;;;;;;4.88;3.25;;;20.00;99.90;;;;;;5052325;28;20086;-76
2023/06/19 07:23:19;;;;;;;0.50;0.43;;;19.90;99.90;;;;;;5051273;28;20111;-76
2023/06/19 07:25:46;;;;;;;7.25;4.55;;;20.10;99.90;;;;;;5040891;28;20107;-76
2023/06/19 07:28:13;;;;;;;4.95;3.00;;;19.90;99.90;;;;;;5050781;28;20560;-76
2023/06/19 07:30:39;;;;;;;7.18;4.60;;;19.50;99.90;;;;;;5052378;28;20112;-77
2023/06/19 07:33:05;;;;;;;2.33;1.77;;;19.50;99.90;;;;;;5063681;28;20102;-76
2023/06/19 07:35:31;;;;;;;15.52;7.70;;;19.60;99.90;;;;;;5056307;28;20048;-76
2023/06/19 07:37:57;;;;;;;3.97;3.25;;;19.60;99.90;;;;;;5057224;28;20523;-76
2023/06/19 07:40:22;;;;;;;20.75;7.63;;;19.50;99.90;;;;;;5062460;28;20033;-76
2023/06/19 07:42:48;;;;;;;2.53;1.23;;;19.40;99.90;;;;;;5067535;28;20036;-76
2023/06/19 07:45:14;;;;;;;12.27;5.15;;;19.90;99.90;;;;;;5071218;28;20060;-76
2023/06/19 07:47:40;;;;;;;5.68;3.72;;;19.70;99.90;;;;;;5057543;28;20020;-76
2023/06/19 07:50:06;;;;;;;3.70;2.25;;;19.70;99.90;;;;;;5058503;28;20482;-76
2023/06/19 07:52:31;;;;;;;4.00;2.55;;;19.80;99.90;;;;;;5063816;28;20047;-75
2023/06/19 07:54:58;;;;;;;7.75;3.30;;;20.20;99.90;;;;;;5069634;28;20473;-76
2023/06/19 07:57:25;;;;;;;1.52;1.17;;;20.10;99.90;;;;;;5071884;28;20030;-77
2023/06/19 07:59:53;;;;;;;4.60;3.38;;;20.00;99.90;;;;;;5045522;28;20029;-77
2023/06/19 08:02:19;;;;;;;5.22;1.08;;;20.40;99.90;;;;;;5059997;28;20025;-77
2023/06/19 08:04:46;;;;;;;4.85;3.83;;;20.70;99.90;;;;;;5060202;28;20024;-77
2023/06/19 08:07:11;;;;;;;12.60;5.65;;;20.50;99.90;;;;;;5064842;28;20040;-78
2023/06/19 08:09:37;;;;;;;4.68;3.17;;;20.40;99.90;;;;;;5056592;28;20395;-77
2023/06/19 08:12:03;;;;;;;7.65;3.50;;;20.70;99.90;;;;;;5056110;28;20396;-77
2023/06/19 08:14:29;;;;;;;6.25;3.88;;;20.30;99.90;;;;;;5061822;28;20028;-77
2023/06/19 08:16:55;;;;;;;7.13;4.93;;;20.10;99.90;;;;;;5067888;28;20024;-77
2023/06/19 08:19:21;;;;;;;0.88;0.85;;;20.10;99.90;;;;;;5070856;28;20051;-77
2023/06/19 08:21:47;;;;;;;1.85;1.30;;;20.00;99.90;;;;;;5055794;28;20059;-78
2023/06/19 08:24:12;;;;;;;3.55;2.38;;;20.40;99.90;;;;;;5058266;28;20549;-78
2023/06/19 08:26:38;;;;;;;1.48;0.85;;;20.20;99.90;;;;;;5065600;28;20043;-77
2023/06/19 08:29:04;;;;;;;14.80;6.68;;;20.60;99.90;;;;;;5069026;28;20100;-77
2023/06/19 08:31:30;;;;;;;2.97;1.90;;;20.30;99.90;;;;;;5060242;28;20119;-77
2023/06/19 08:33:56;;;;;;;3.58;2.03;;;20.60;99.90;;;;;;5064984;28;20033;-79
2023/06/19 08:36:23;;;;;;;6.63;3.40;;;20.60;99.90;;;;;;5050056;28;20033;-77
2023/06/19 08:38:50;;;;;;;3.70;2.83;;;20.60;99.90;;;;;;5058343;28;20025;-76
2023/06/19 08:41:18;;;;;;;1.13;1.05;;;20.70;99.90;;;;;;5064327;28;20025;-76
2023/06/19 08:43:45;;;;;;;9.13;4.50;;;21.00;99.90;;;;;;5065577;28;20033;-79
2023/06/19 08:46:19;;;;;;;0.60;0.60;;;21.00;99.90;;;;;;5061340;28;20067;-78
2023/06/19 08:48:49;;;;;;;3.67;1.88;;;21.30;99.90;;;;;;5050192;28;20025;-76
2023/06/19 08:51:15;;;;;;;1.00;0.90;;;21.00;99.90;;;;;;5049649;28;20207;-79
2023/06/19 08:53:46;;;;;;;1.73;0.65;;;21.20;99.90;;;;;;5051353;28;20094;-79
2023/06/19 08:56:12;;;;;;;6.60;5.18;;;21.30;99.90;;;;;;5050026;28;20029;-79
2023/06/19 08:58:38;;;;;;;0.55;0.50;;;21.00;99.90;;;;;;5045642;28;20025;-78
2023/06/19 09:01:04;;;;;;;9.30;2.17;;;21.10;99.90;;;;;;5050430;28;20032;-79
2023/06/19 09:03:30;;;;;;;7.90;3.83;;;21.50;99.90;;;;;;5051343;28;20068;-79
2023/06/19 09:05:55;;;;;;;6.10;3.25;;;21.60;99.90;;;;;;5050808;28;20036;-78
2023/06/19 09:08:22;;;;;;;1.80;1.50;;;21.10;99.90;;;;;;5049755;28;20086;-79
2023/06/19 09:10:59;;;;;;;0.63;0.63;;;21.20;99.90;;;;;;5033699;28;20481;-80
2023/06/19 09:13:25;;;;;;;4.25;3.10;;;21.30;99.90;;;;;;5049894;28;20051;-81
2023/06/19 09:16:01;;;;;;;0.15;0.15;;;21.20;99.90;;;;;;5048150;28;20014;-81
2023/06/19 09:18:29;;;;;;;1.00;0.77;;;21.70;99.90;;;;;;5049903;28;20029;-81
2023/06/19 09:20:55;;;;;;;2.58;1.45;;;21.60;99.90;;;;;;5055080;28;20033;-80
2023/06/19 09:23:21;;;;;;;5.03;2.08;;;21.90;99.90;;;;;;5055385;28;20033;-80
2023/06/19 09:25:56;;;;;;;1.52;1.42;;;21.90;99.90;;;;;;5047880;28;20025;-80
2023/06/19 09:28:27;;;;;;;12.38;2.58;;;22.60;99.90;;;;;;5054267;28;20100;-80
2023/06/19 09:30:57;;;;;;;3.17;1.67;;;23.00;99.90;;;;;;5054911;28;20056;-78
2023/06/19 09:33:32;;;;;;;4.30;3.55;;;23.40;99.90;;;;;;5068188;28;20041;-78
2023/06/19 09:35:59;;;;;;;3.03;2.72;;;22.90;99.90;;;;;;5056734;28;20508;-77
2023/06/19 09:38:27;;;;;;;6.38;1.38;;;23.40;99.90;;;;;;5060152;28;20017;-76
2023/06/19 09:40:53;;;;;;;1.25;0.22;;;22.80;99.90;;;;;;5068828;28;20040;-81
2023/06/19 09:43:34;;;;;;;0.10;0.10;;;23.20;99.90;;;;;;5071157;28;20485;-83
2023/06/19 09:46:01;;;;;;;1.90;1.70;;;22.90;99.90;;;;;;5041633;28;20041;-76
2023/06/19 09:48:30;;;;;;;10.25;4.30;;;23.10;99.90;;;;;;5058433;28;20829;-82
2023/06/19 09:51:06;;;;;;;2.72;1.58;;;23.20;99.90;;;;;;5066223;28;20016;-82
2023/06/19 09:53:33;;;;;;;0.45;0.45;;;23.80;99.90;;;;;;5068444;28;20481;-81
2023/06/19 09:55:58;;;;;;;6.80;2.55;;;23.40;99.90;;;;;;5061844;28;20476;-82
2023/06/19 09:58:24;;;;;;;4.38;2.10;;;23.00;99.90;;;;;;5073880;28;20024;-80
2023/06/19 10:00:51;;;;;;;8.52;4.55;;;22.80;99.90;;;;;;5071721;28;20119;-80
2023/06/19 10:03:17;;;;;;;2.80;1.90;;;23.00;99.90;;;;;;5074602;28;20041;-80
2023/06/19 10:05:43;;;;;;;7.38;2.65;;;23.20;99.90;;;;;;5074947;28;20032;-82
2023/06/19 10:08:09;;;;;;;7.80;1.70;;;23.80;99.90;;;;;;5055273;28;20020;-81
2023/06/19 10:10:36;;;;;;;2.78;1.40;;;23.40;99.90;;;;;;5054323;28;20029;-82
2023/06/19 10:13:16;;;;;;;5.07;2.58;;;23.40;99.90;;;;;;5053314;28;20413;-81
2023/06/19 10:15:43;;;;;;;6.53;1.73;;;23.70;99.90;;;;;;5053802;28;20025;-81
2023/06/19 10:18:17;;;;;;;2.00;1.83;;;23.50;99.90;;;;;;5053832;28;20060;-81
2023/06/19 10:20:45;;;;;;;1.15;1.08;;;23.30;99.90;;;;;;5054436;28;20049;-80
2023/06/19 10:23:24;;;;;;;0.52;0.47;;;22.90;99.90;;;;;;5054628;28;20033;-74
2023/06/19 10:25:53;;;;;;;0.10;0.10;;;23.30;99.90;;;;;;5052941;28;20475;-76
2023/06/19 10:28:30;;;;;;;1.05;0.77;;;24.20;99.90;;;;;;5052864;28;20021;-74
2023/06/19 10:31:04;;;;;;;5.10;1.92;;;24.50;99.90;;;;;;5051866;28;20090;-75
2023/06/19 10:33:36;;;;;;;6.88;1.65;;;24.80;99.90;;;;;;5068452;28;20047;-76
2023/06/19 10:36:15;;;;;;;6.57;3.00;;;24.30;99.90;;;;;;5066143;28;20033;-75
2023/06/19 10:38:41;;;;;;;2.63;1.77;;;24.30;99.90;;;;;;5058680;28;20036;-75
2023/06/19 10:41:22;;;;;;;2.50;1.95;;;24.20;99.90;;;;;;5066052;28;20381;-75
2023/06/19 10:43:59;;;;;;;2.97;1.58;;;23.90;99.90;;;;;;5063618;28;20120;-76
2023/06/19 10:46:30;;;;;;;11.90;4.10;;;24.30;99.90;;;;;;5063459;28;20033;-75
2023/06/19 10:49:00;;;;;;;6.18;3.80;;;23.80;99.90;;;;;;5058563;28;20123;-76
2023/06/19 10:51:31;;;;;;;7.47;2.78;;;23.90;99.90;;;;;;5062715;28;20116;-75
2023/06/19 10:53:57;;;;;;;3.83;1.77;;;24.10;99.90;;;;;;5065157;28;20032;-75
2023/06/19 10:56:24;;;;;;;3.05;2.53;;;24.80;99.90;;;;;;5071617;28;20404;-76
2023/06/19 10:59:02;;;;;;;3.60;1.65;;;25.10;99.60;;;;;;5060062;28;20130;-75
2023/06/19 11:01:38;;;;;;;7.68;2.83;;;24.70;99.90;;;;;;5060273;28;20070;-76
2023/06/19 11:04:09;;;;;;;2.45;1.45;;;24.60;99.90;;;;;;5061447;28;20035;-76
2023/06/19 11:06:36;;;;;;;5.18;1.88;;;24.40;99.90;;;;;;5067066;28;20039;-75
2023/06/19 11:09:07;;;;;;;8.40;0.73;;;24.80;99.90;;;;;;5065938;28;20538;-76
2023/06/19 11:11:42;;;;;;;2.63;1.27;;;24.60;99.70;;;;;;5057432;28;20032;-75
2023/06/19 11:14:09;;;;;;;1.35;1.20;;;24.80;99.20;;;;;;5059495;28;20045;-75
2023/06/19 11:16:38;;;;;;;1.95;1.83;;;25.30;99.20;;;;;;5050244;28;20060;-76
2023/06/19 11:19:07;;;;;;;0.68;0.50;;;25.10;99.60;;;;;;5072265;28;20032;-76
2023/06/19 11:21:38;;;;;;;2.33;1.00;;;24.60;99.90;;;;;;5066676;28;20045;-76
2023/06/19 11:24:11;;;;;;;1.33;1.23;;;24.60;99.90;;;;;;5053217;28;20107;-75
2023/06/19 11:26:50;;;;;;;2.08;1.65;;;25.20;99.20;;;;;;5052025;28;20082;-75
2023/06/19 11:29:18;;;;;;;6.18;0.90;;;25.90;97.90;;;;;;5045026;28;20094;-75
2023/06/19 11:31:46;;;;;;;0.68;0.68;;;25.90;98.00;;;;;;5051675;28;20489;-76
2023/06/19 11:34:11;;;;;;;0.95;0.95;;;26.40;96.60;;;;;;5064224;28;20031;-75
2023/06/19 11:36:38;;;;;;;1.20;0.60;;;26.60;96.60;;;;;;5064454;28;20103;-74
2023/06/19 11:39:08;;;;;;;0.70;0.55;;;26.30;96.50;;;;;;5070077;28;20387;-75
2023/06/19 11:41:35;;;;;;;0.35;0.20;;;26.80;96.20;;;;;;5059727;28;20497;-75
2023/06/19 11:44:04;;;;;;;0.20;0.20;;;26.50;95.60;;;;;;5059413;28;20028;-75
2023/06/19 11:46:32;;;;;;;1.15;0.75;;;26.60;95.70;;;;;;5062417;28;20031;-75
2023/06/19 11:49:08;;;;;;;3.72;1.55;;;26.50;95.70;;;;;;5065865;28;20020;-75
2023/06/19 11:51:34;;;;;;;0.73;0.73;;;25.90;96.00;;;;;;5061740;28;20441;-75
2023/06/19 11:54:02;;;;;;;4.38;1.83;;;25.80;96.70;;;;;;5072572;28;20068;-75
2023/06/19 11:56:29;;;;;;;1.90;1.00;;;25.90;95.80;;;;;;5062841;28;20038;-75
2023/06/19 11:58:56;;;;;;;3.17;2.35;;;26.00;95.80;;;;;;5063462;28;20058;-76
2023/06/19 12:01:22;;;;;;;0.73;0.50;;;25.80;95.70;;;;;;5070821;28;20428;-75
2023/06/19 12:03:47;;;;;;;5.78;2.08;;;25.90;95.70;;;;;;5060024;28;20036;-76
2023/06/19 12:06:13;;;;;;;0.38;0.38;;;26.00;95.60;;;;;;5060447;28;20484;-75
2023/06/19 12:08:39;;;;;;;0.43;0.43;;;25.90;94.90;;;;;;5061353;28;20024;-75
2023/06/19 12:11:08;;;;;;;0.10;0.10;;;26.50;94.10;;;;;;5065444;28;20017;-75
2023/06/19 12:13:33;;;;;;;1.02;0.73;;;27.30;93.10;;;;;;5070927;28;20052;-75
2023/06/19 12:15:59;;;;;;;7.75;2.25;;;27.00;93.40;;;;;;5057805;28;20025;-75
2023/06/19 12:18:25;;;;;;;0.17;0.17;;;26.40;93.40;;;;;;5059967;28;20119;-76
2023/06/19 12:20:51;;;;;;;1.17;1.10;;;26.80;93.60;;;;;;5061293;28;20021;-75
2023/06/19 12:23:17;;;;;;;1.45;0.20;;;27.10;92.80;;;;;;5060633;28;20493;-75
2023/06/19 12:25:43;;;;;;;2.15;1.38;;;27.40;92.50;;;;;;5050504;28;20025;-75
2023/06/19 12:28:09;;;;;;;0.75;0.65;;;27.40;92.50;;;;;;5055419;28;20028;-76
2023/06/19 12:30:37;;;;;;;1.48;0.68;;;27.30;92.70;;;;;;5060706;28;20103;-75
2023/06/19 12:33:03;;;;;;;0.82;0.63;;;27.10;91.60;;;;;;5060425;28;20134;-76
2023/06/19 12:35:29;;;;;;;3.30;2.72;;;27.80;91.10;;;;;;5064056;28;20465;-75
2023/06/19 12:37:55;;;;;;;2.70;1.65;;;27.40;92.00;;;;;;5066883;28;20047;-73
2023/06/19 12:40:21;;;;;;;1.08;0.98;;;27.60;90.70;;;;;;5070838;28;20032;-76
2023/06/19 12:42:46;;;;;;;5.22;1.70;;;27.90;91.70;;;;;;5055834;28;20320;-75
2023/06/19 12:45:12;;;;;;;0.10;0.10;;;28.10;90.50;;;;;;5058486;28;20033;-76
2023/06/19 12:47:38;;;;;;;1.00;0.43;;;27.20;91.60;;;;;;5048020;28;20024;-75